Time;durP1;ratioP1;P1;durP2;ratioP2;P2;SDS_P1;SDS_P2;PMS_P1;PMS_P2;Temp;Humidity;BMP_temperature;BMP_pressure;BME280_temperature;BME280_humidity;BME280_pressure;Samples;Min_cycle;Max_cycle;Signal;HPM_P1;HPM_P2
2023/01/16 00:01:44;;;;;;;2.85;0.80;;;5.60;99.90;;;;;;5034888;28;20025;-69
2023/01/16 00:04:10;;;;;;;2.40;1.05;;;5.70;99.90;;;;;;5036327;28;20017;-69
2023/01/16 00:06:36;;;;;;;1.13;0.70;;;5.80;99.90;;;;;;5034819;28;20102;-69
2023/01/16 00:09:03;;;;;;;2.47;0.80;;;5.80;99.90;;;;;;5034851;28;20030;-69
2023/01/16 00:11:29;;;;;;;5.00;0.85;;;5.90;99.90;;;;;;5036975;28;20052;-69
2023/01/16 00:13:55;;;;;;;3.97;0.50;;;5.90;99.90;;;;;;5034685;28;20025;-69
2023/01/16 00:16:21;;;;;;;5.32;0.90;;;6.00;99.90;;;;;;5034677;28;20021;-69
2023/01/16 00:18:47;;;;;;;1.42;0.65;;;6.00;99.90;;;;;;5036083;28;20104;-69
2023/01/16 00:21:12;;;;;;;1.98;0.93;;;6.00;99.90;;;;;;5036150;28;20105;-69
2023/01/16 00:23:38;;;;;;;4.50;0.75;;;6.00;99.90;;;;;;5035084;28;20036;-69
2023/01/16 00:26:09;;;;;;;2.35;0.93;;;5.90;99.90;;;;;;5035649;28;20041;-69
2023/01/16 00:28:37;;;;;;;4.90;0.70;;;5.90;99.90;;;;;;5035738;28;20025;-69
2023/01/16 00:31:06;;;;;;;2.25;0.85;;;6.00;99.90;;;;;;5035855;28;20014;-69
2023/01/16 00:33:33;;;;;;;2.40;0.50;;;6.00;99.90;;;;;;5035910;28;20044;-69
2023/01/16 00:35:58;;;;;;;2.05;0.70;;;6.00;99.90;;;;;;5035333;28;20034;-69
2023/01/16 00:38:24;;;;;;;3.03;0.75;;;6.00;99.90;;;;;;5034440;28;20044;-69
2023/01/16 00:40:49;;;;;;;3.67;0.47;;;5.90;99.90;;;;;;5040206;28;20025;-69
2023/01/16 00:43:15;;;;;;;2.95;0.80;;;5.90;99.90;;;;;;5034235;28;20033;-69
2023/01/16 00:45:40;;;;;;;3.70;0.73;;;6.00;99.90;;;;;;5035378;28;20021;-69
2023/01/16 00:48:06;;;;;;;2.05;0.57;;;5.90;99.90;;;;;;5034860;28;20025;-69
2023/01/16 00:50:32;;;;;;;0.82;0.40;;;5.90;99.90;;;;;;5035371;28;20025;-69
2023/01/16 00:52:58;;;;;;;4.10;0.47;;;6.00;99.90;;;;;;5034104;28;20036;-69
2023/01/16 00:55:24;;;;;;;2.13;0.52;;;6.00;99.90;;;;;;5034033;28;20120;-69
2023/01/16 00:57:50;;;;;;;4.85;0.75;;;6.00;99.90;;;;;;5033943;28;20056;-69
2023/01/16 01:00:21;;;;;;;5.75;0.60;;;6.10;99.90;;;;;;5034050;28;20017;-69
2023/01/16 01:02:48;;;;;;;1.98;0.50;;;6.00;99.90;;;;;;5035392;28;20051;-69
2023/01/16 01:05:14;;;;;;;2.38;0.52;;;6.10;99.90;;;;;;5033977;28;20056;-69
2023/01/16 01:07:39;;;;;;;6.88;1.05;;;6.20;99.90;;;;;;5033782;28;20018;-69
2023/01/16 01:10:05;;;;;;;1.73;0.68;;;6.10;99.90;;;;;;5035710;28;20033;-69
2023/01/16 01:12:31;;;;;;;2.15;0.50;;;6.10;99.90;;;;;;5034848;28;20097;-69
2023/01/16 01:14:56;;;;;;;3.92;0.80;;;6.10;99.90;;;;;;5033730;28;20392;-69
2023/01/16 01:17:22;;;;;;;3.63;0.50;;;6.10;99.90;;;;;;5034331;28;20057;-68
2023/01/16 01:19:48;;;;;;;3.67;0.73;;;5.80;99.90;;;;;;5034320;28;20026;-68
2023/01/16 01:22:15;;;;;;;1.73;0.77;;;5.90;99.90;;;;;;5034885;28;20028;-69
2023/01/16 01:24:41;;;;;;;7.25;0.95;;;6.00;99.90;;;;;;5033431;28;20029;-69
2023/01/16 01:27:07;;;;;;;1.15;0.55;;;6.10;99.90;;;;;;5033471;28;20080;-69
2023/01/16 01:29:33;;;;;;;3.25;0.73;;;6.20;99.90;;;;;;5033436;28;20017;-69
2023/01/16 01:31:58;;;;;;;3.53;0.70;;;6.10;99.90;;;;;;5036050;28;20035;-69
2023/01/16 01:34:24;;;;;;;3.22;0.60;;;6.00;99.90;;;;;;5033794;28;20033;-69
2023/01/16 01:36:49;;;;;;;1.35;0.50;;;6.10;99.90;;;;;;5033852;28;20120;-69
2023/01/16 01:39:15;;;;;;;3.60;0.55;;;6.10;99.90;;;;;;5035225;28;20025;-69
2023/01/16 01:41:41;;;;;;;4.13;0.73;;;6.20;99.90;;;;;;5034578;28;20025;-69
2023/01/16 01:44:52;;;;;;;1.20;0.43;;;6.20;99.90;;;;;;5036214;28;20036;-69
2023/01/16 01:47:23;;;;;;;3.23;0.97;;;6.10;99.90;;;;;;5035261;28;20053;-69
2023/01/16 01:49:50;;;;;;;1.23;0.70;;;5.90;99.90;;;;;;5035336;28;20122;-68
2023/01/16 01:52:19;;;;;;;3.22;0.70;;;5.90;99.90;;;;;;5032877;28;20075;-69
2023/01/16 01:54:50;;;;;;;2.97;0.75;;;6.00;99.90;;;;;;5033512;28;20029;-69
2023/01/16 01:57:41;;;;;;;1.55;0.50;;;5.90;99.90;;;;;;5034987;28;20029;-69
2023/01/16 02:00:10;;;;;;;2.97;0.52;;;6.10;99.90;;;;;;5031430;28;20116;-68
2023/01/16 02:02:41;;;;;;;4.35;1.30;;;6.20;99.90;;;;;;5033205;28;20128;-68
2023/01/16 02:05:10;;;;;;;3.92;1.05;;;6.20;99.90;;;;;;5036813;28;20057;-69
2023/01/16 02:07:35;;;;;;;2.25;0.60;;;6.10;99.90;;;;;;5035956;28;20021;-69
2023/01/16 02:10:19;;;;;;;1.45;0.40;;;5.80;99.90;;;;;;5033727;28;20179;-69
2023/01/16 02:12:45;;;;;;;1.40;0.77;;;5.90;99.90;;;;;;5034578;28;20044;-69
2023/01/16 02:15:11;;;;;;;1.73;0.80;;;5.90;99.90;;;;;;5033851;28;20025;-69
2023/01/16 02:20:28;;;;;;;4.40;1.02;;;5.70;99.90;;;;;;5033975;28;20141;-69
2023/01/16 02:23:10;;;;;;;1.80;0.80;;;5.80;99.90;;;;;;5033610;28;20029;-69
2023/01/16 02:25:36;;;;;;;3.00;0.68;;;5.80;99.90;;;;;;5033531;28;20025;-69
2023/01/16 02:28:31;;;;;;;1.30;0.70;;;5.70;99.90;;;;;;5032338;28;20506;-69
2023/01/16 02:31:11;;;;;;;2.65;0.98;;;5.70;99.90;;;;;;5032317;28;20026;-69
2023/01/16 02:33:43;;;;;;;1.30;1.10;;;5.80;99.90;;;;;;5032345;28;20619;-69
2023/01/16 02:36:44;;;;;;;1.92;1.17;;;5.80;99.90;;;;;;5033455;28;20025;-69
2023/01/16 02:39:26;;;;;;;2.00;0.88;;;5.60;99.90;;;;;;5033385;28;20053;-68
2023/01/16 02:42:12;;;;;;;4.13;1.08;;;5.60;99.90;;;;;;5032323;28;20025;-68
2023/01/16 02:45:06;;;;;;;3.58;1.10;;;5.50;99.90;;;;;;5033003;28;20053;-68
2023/01/16 02:47:56;;;;;;;3.78;1.10;;;5.50;99.90;;;;;;5032679;28;20446;-68
2023/01/16 02:50:31;;;;;;;5.97;1.52;;;5.60;99.90;;;;;;5032054;28;20021;-68
2023/01/16 02:53:01;;;;;;;4.32;1.38;;;5.60;99.90;;;;;;5037075;28;20040;-69
2023/01/16 02:55:33;;;;;;;3.42;1.30;;;5.40;99.90;;;;;;5033798;28;20026;-69
2023/01/16 02:58:05;;;;;;;3.60;1.05;;;5.50;99.90;;;;;;5032542;28;20029;-68
2023/01/16 03:00:31;;;;;;;;;;;5.50;99.90;;;;;;5033748;28;20033;-68
2023/01/16 03:02:58;;;;;;;4.53;1.55;;;5.50;99.90;;;;;;5033125;28;20276;-68
2023/01/16 03:05:24;;;;;;;2.67;1.05;;;5.60;99.90;;;;;;5031965;28;20029;-68
2023/01/16 03:08:11;;;;;;;1.65;1.25;;;5.50;99.90;;;;;;5031833;28;20072;-68
2023/01/16 03:10:58;;;;;;;5.45;1.40;;;5.50;99.90;;;;;;5033996;28;20033;-68
2023/01/16 03:13:38;;;;;;;6.25;1.50;;;5.40;99.90;;;;;;5039834;28;20025;-68
2023/01/16 03:16:10;;;;;;;4.63;1.08;;;5.40;99.90;;;;;;5038714;28;20468;-68
2023/01/16 03:19:05;;;;;;;3.22;0.70;;;5.50;99.90;;;;;;5038445;28;20022;-68
2023/01/16 03:21:50;;;;;;;6.50;0.95;;;5.60;99.90;;;;;;5039858;28;20037;-68
2023/01/16 03:24:33;;;;;;;4.70;1.25;;;5.40;99.90;;;;;;5039623;28;20026;-68
2023/01/16 03:27:16;;;;;;;9.25;1.05;;;5.50;99.90;;;;;;5039826;28;20045;-68
2023/01/16 03:29:46;;;;;;;8.60;1.17;;;5.60;99.90;;;;;;5039717;28;20041;-68
2023/01/16 03:32:19;;;;;;;6.95;1.08;;;5.50;99.90;;;;;;5039311;28;20025;-68
2023/01/16 03:34:54;;;;;;;4.80;1.25;;;5.50;99.90;;;;;;5040162;28;20030;-68
2023/01/16 03:37:41;;;;;;;9.65;1.30;;;5.40;99.90;;;;;;5039120;28;20026;-68
2023/01/16 03:40:13;;;;;;;6.07;0.90;;;5.40;99.90;;;;;;5038846;28;20032;-68
2023/01/16 03:42:45;;;;;;;1.70;0.80;;;5.50;99.90;;;;;;5039495;28;20149;-68
2023/01/16 03:45:17;;;;;;;3.65;1.05;;;5.60;99.90;;;;;;5038128;28;20030;-68
2023/01/16 03:47:52;;;;;;;5.40;0.93;;;5.60;99.90;;;;;;5039906;28;20358;-68
2023/01/16 03:50:21;;;;;;;5.90;0.90;;;5.60;99.90;;;;;;5038124;28;20028;-68
2023/01/16 03:52:52;;;;;;;7.78;1.10;;;5.60;99.90;;;;;;5038084;28;20064;-68
2023/01/16 03:55:25;;;;;;;4.60;0.90;;;5.60;99.90;;;;;;5042189;28;20021;-68
2023/01/16 03:58:02;;;;;;;3.90;0.98;;;5.50;99.90;;;;;;5045309;28;20052;-69
2023/01/16 04:00:37;;;;;;;2.47;0.75;;;5.60;99.90;;;;;;5038135;28;20030;-69
2023/01/16 04:03:14;;;;;;;5.50;1.10;;;5.60;99.90;;;;;;5039090;28;20021;-68
2023/01/16 04:05:51;;;;;;;2.72;0.77;;;5.70;99.90;;;;;;5038048;28;20374;-68
2023/01/16 04:08:23;;;;;;;4.70;0.90;;;5.60;99.90;;;;;;5039370;28;20025;-68
2023/01/16 04:10:51;;;;;;;2.63;1.08;;;5.70;99.90;;;;;;5037995;28;20119;-68
2023/01/16 04:13:26;;;;;;;6.05;1.20;;;5.70;99.90;;;;;;5039135;28;20029;-68
2023/01/16 04:15:56;;;;;;;3.65;0.90;;;5.60;99.90;;;;;;5038399;28;20067;-68
2023/01/16 04:18:25;;;;;;;4.18;0.90;;;5.60;99.90;;;;;;5038070;28;20025;-68
2023/01/16 04:20:51;;;;;;;7.30;2.03;;;5.60;99.90;;;;;;5038626;28;20025;-68
2023/01/16 04:23:17;;;;;;;4.53;0.90;;;5.40;99.90;;;;;;5034223;28;20071;-68
2023/01/16 04:25:44;;;;;;;9.30;1.20;;;5.40;99.90;;;;;;5036315;28;20064;-68
2023/01/16 04:28:10;;;;;;;8.80;1.10;;;5.40;99.90;;;;;;5034606;28;20056;-68
2023/01/16 04:30:35;;;;;;;6.95;1.35;;;5.40;99.90;;;;;;5034576;28;20041;-68
2023/01/16 04:33:05;;;;;;;3.75;0.75;;;5.50;99.90;;;;;;5034846;28;20025;-68
2023/01/16 04:35:31;;;;;;;1.42;0.80;;;5.40;99.90;;;;;;5034559;28;20065;-68
2023/01/16 04:37:57;;;;;;;3.97;1.10;;;5.50;99.90;;;;;;5035746;28;20499;-68
2023/01/16 04:40:22;;;;;;;4.65;0.98;;;5.50;99.90;;;;;;5035852;28;20037;-68
2023/01/16 04:42:48;;;;;;;3.88;0.90;;;5.50;99.90;;;;;;5034488;28;20469;-68
2023/01/16 04:45:14;;;;;;;3.10;0.98;;;5.50;99.90;;;;;;5035850;28;20104;-68
2023/01/16 04:47:39;;;;;;;3.17;1.10;;;5.40;99.90;;;;;;5035216;28;20022;-68
2023/01/16 04:50:05;;;;;;;1.67;1.05;;;5.40;99.90;;;;;;5035485;28;20025;-68
2023/01/16 04:52:31;;;;;;;9.07;0.88;;;5.50;99.90;;;;;;5034256;28;20159;-68
2023/01/16 04:54:56;;;;;;;6.70;1.20;;;5.50;99.90;;;;;;5035417;28;20026;-68
2023/01/16 04:57:22;;;;;;;3.13;1.00;;;5.40;99.90;;;;;;5034984;28;20033;-68
2023/01/16 04:59:47;;;;;;;4.93;1.00;;;5.50;99.90;;;;;;5034723;28;20026;-68
2023/01/16 05:02:13;;;;;;;8.15;0.98;;;5.50;99.90;;;;;;5038639;28;20029;-68
2023/01/16 05:04:38;;;;;;;4.40;0.80;;;5.50;99.90;;;;;;5038243;28;20045;-68
2023/01/16 05:07:04;;;;;;;4.78;1.10;;;5.50;99.90;;;;;;5034416;28;20059;-68
2023/01/16 05:09:29;;;;;;;2.33;0.98;;;5.60;99.90;;;;;;5036595;28;20029;-68
2023/01/16 05:11:55;;;;;;;2.70;0.80;;;5.50;99.90;;;;;;5035450;28;20028;-68
2023/01/16 05:14:21;;;;;;;6.85;1.42;;;5.50;99.90;;;;;;5035327;28;20037;-68
2023/01/16 05:16:46;;;;;;;6.75;1.00;;;5.60;99.90;;;;;;5035041;28;20029;-68
2023/01/16 05:19:12;;;;;;;5.53;1.33;;;5.40;99.90;;;;;;5033729;28;20108;-68
2023/01/16 05:21:37;;;;;;;8.45;0.98;;;5.40;99.90;;;;;;5035001;28;20031;-68
2023/01/16 05:24:03;;;;;;;4.35;0.90;;;5.40;99.90;;;;;;5033602;28;20021;-68
2023/01/16 05:26:29;;;;;;;5.13;1.98;;;5.50;99.90;;;;;;5034207;28;20025;-68
2023/01/16 05:28:54;;;;;;;5.30;1.10;;;5.50;99.90;;;;;;5035094;28;20033;-68
2023/01/16 05:31:20;;;;;;;5.03;1.05;;;5.60;99.90;;;;;;5034900;28;20071;-68
2023/01/16 05:33:46;;;;;;;3.70;0.90;;;5.60;99.90;;;;;;5033062;28;20079;-68
2023/01/16 05:36:11;;;;;;;2.88;0.90;;;5.60;99.90;;;;;;5034016;28;20377;-68
2023/01/16 05:38:37;;;;;;;10.23;1.83;;;5.60;99.90;;;;;;5034288;28;20029;-68
2023/01/16 05:41:03;;;;;;;3.92;1.10;;;5.70;99.90;;;;;;5033472;28;20163;-68
2023/01/16 05:43:28;;;;;;;4.18;0.93;;;5.60;99.90;;;;;;5034639;28;20361;-68
2023/01/16 05:45:54;;;;;;;5.10;0.70;;;5.60;99.90;;;;;;5033335;28;20021;-68
2023/01/16 05:48:19;;;;;;;4.88;0.95;;;5.50;99.90;;;;;;5033755;28;20025;-68
2023/01/16 05:50:45;;;;;;;2.97;0.70;;;5.60;99.90;;;;;;5034297;28;20037;-68
2023/01/16 05:53:10;;;;;;;1.75;0.95;;;5.60;99.90;;;;;;5032967;28;20022;-68
2023/01/16 05:55:42;;;;;;;3.40;1.10;;;5.50;99.90;;;;;;5034084;28;20029;-68
2023/01/16 05:58:13;;;;;;;3.30;1.17;;;5.40;99.90;;;;;;5033156;28;20568;-68
2023/01/16 06:00:40;;;;;;;7.88;0.85;;;5.40;99.90;;;;;;5032780;28;20126;-68
2023/01/16 06:03:06;;;;;;;2.97;1.50;;;5.50;99.90;;;;;;5034534;28;20033;-68
2023/01/16 06:05:32;;;;;;;5.40;1.15;;;5.50;99.90;;;;;;5033919;28;20555;-68
2023/01/16 06:07:58;;;;;;;4.50;1.05;;;5.40;99.90;;;;;;5032796;28;20121;-68
2023/01/16 06:10:25;;;;;;;1.95;1.08;;;5.30;99.90;;;;;;5052026;22;20038;-71
2023/01/16 06:12:50;;;;;;;4.05;1.17;;;5.20;99.90;;;;;;5017050;28;20018;-71
2023/01/16 06:15:16;;;;;;;2.40;0.73;;;5.10;99.90;;;;;;5015019;28;20107;-71
2023/01/16 06:17:41;;;;;;;1.60;0.60;;;5.00;99.90;;;;;;5013590;28;20093;-71
2023/01/16 06:20:08;;;;;;;3.60;1.02;;;5.10;99.90;;;;;;5014308;28;20025;-71
2023/01/16 06:22:34;;;;;;;4.07;0.60;;;5.00;99.90;;;;;;5017942;28;20116;-71
2023/01/16 06:24:59;;;;;;;5.38;0.77;;;5.10;99.90;;;;;;5013004;28;20176;-71
2023/01/16 06:27:25;;;;;;;3.85;0.68;;;5.30;99.90;;;;;;5013419;28;20022;-71
2023/01/16 06:29:50;;;;;;;3.53;0.60;;;5.40;99.90;;;;;;5012769;28;20022;-71
2023/01/16 06:32:16;;;;;;;2.95;0.60;;;5.40;99.90;;;;;;5012794;28;20032;-71
2023/01/16 06:34:42;;;;;;;5.78;0.90;;;5.30;99.90;;;;;;5013998;28;20089;-71
2023/01/16 06:37:08;;;;;;;5.70;1.10;;;5.30;99.90;;;;;;5012722;28;20038;-71
2023/01/16 06:39:33;;;;;;;1.77;1.00;;;5.30;99.90;;;;;;5013917;28;20026;-71
2023/01/16 06:41:59;;;;;;;3.97;1.23;;;5.30;99.90;;;;;;5013942;28;20109;-71
2023/01/16 06:44:24;;;;;;;1.92;0.73;;;5.30;99.90;;;;;;5013756;28;20121;-71
2023/01/16 06:46:50;;;;;;;2.92;0.70;;;5.20;99.90;;;;;;5012618;28;20024;-71
2023/01/16 06:49:15;;;;;;;4.95;0.80;;;5.20;99.90;;;;;;5013760;28;20026;-71
2023/01/16 06:51:42;;;;;;;7.57;0.90;;;5.40;99.90;;;;;;5014588;28;20018;-71
2023/01/16 06:54:09;;;;;;;5.68;0.88;;;5.40;99.90;;;;;;5014076;28;20044;-71
2023/01/16 06:56:34;;;;;;;1.42;0.60;;;5.30;99.90;;;;;;5015130;28;20068;-71
2023/01/16 06:59:00;;;;;;;2.03;0.68;;;5.30;99.90;;;;;;5013655;28;20050;-71
2023/01/16 07:01:26;;;;;;;1.23;0.40;;;5.30;99.90;;;;;;5012610;28;20109;-71
2023/01/16 07:03:51;;;;;;;7.40;0.60;;;5.30;99.90;;;;;;5012728;28;20018;-71
2023/01/16 07:06:17;;;;;;;1.17;0.77;;;5.20;99.90;;;;;;5012096;28;20030;-71
2023/01/16 07:08:43;;;;;;;2.72;0.98;;;5.40;99.90;;;;;;5013847;28;20519;-71
2023/01/16 07:11:08;;;;;;;2.15;0.75;;;5.40;99.90;;;;;;5012684;28;20033;-71
2023/01/16 07:13:34;;;;;;;1.23;0.43;;;5.40;99.90;;;;;;5014418;28;20022;-71
2023/01/16 07:24:24;;;;;;;1.20;0.57;;;5.60;99.90;;;;;;5013316;28;20511;-71
2023/01/16 07:26:57;;;;;;;1.73;0.70;;;5.60;99.90;;;;;;5017604;28;20032;-71
2023/01/16 07:29:24;;;;;;;1.92;0.50;;;5.50;99.90;;;;;;5012391;28;20108;-71
2023/01/16 07:31:49;;;;;;;3.83;0.60;;;5.40;99.90;;;;;;5013601;28;20069;-71
2023/01/16 07:34:15;;;;;;;7.78;0.57;;;5.50;99.90;;;;;;5013616;28;20049;-71
2023/01/16 07:36:40;;;;;;;3.95;0.73;;;5.60;99.90;;;;;;5013183;28;20028;-71
2023/01/16 07:39:06;;;;;;;3.22;1.02;;;5.60;99.90;;;;;;5011879;28;20028;-71
2023/01/16 07:41:31;;;;;;;2.75;0.90;;;5.50;99.90;;;;;;5011765;28;20018;-71
2023/01/16 07:43:57;;;;;;;4.38;0.88;;;5.30;99.90;;;;;;5013392;28;20485;-71
2023/01/16 07:46:22;;;;;;;5.20;0.70;;;5.20;99.90;;;;;;5011888;28;20025;-71
2023/01/16 07:48:48;;;;;;;1.55;0.60;;;5.40;99.90;;;;;;5012212;28;20018;-71
2023/01/16 07:51:13;;;;;;;4.90;0.55;;;5.20;99.90;;;;;;5012437;28;20018;-71
2023/01/16 07:53:39;;;;;;;0.60;0.60;;;5.20;99.90;;;;;;5013093;28;20088;-71
2023/01/16 07:56:04;;;;;;;4.88;0.80;;;5.20;99.90;;;;;;5013527;28;20026;-71
2023/01/16 07:58:30;;;;;;;5.75;0.70;;;5.10;99.90;;;;;;5015402;28;20037;-71
2023/01/16 08:00:56;;;;;;;3.60;1.35;;;5.10;99.90;;;;;;5016707;28;20065;-71
2023/01/16 08:03:23;;;;;;;1.17;0.45;;;5.20;99.90;;;;;;5017023;28;20469;-71
2023/01/16 08:05:50;;;;;;;2.92;0.73;;;5.20;99.90;;;;;;5015607;28;20048;-71
2023/01/16 08:08:16;;;;;;;1.00;0.73;;;5.30;99.90;;;;;;5016490;28;20014;-71
2023/01/16 08:10:42;;;;;;;1.08;0.50;;;5.30;99.90;;;;;;5015674;28;20449;-71
2023/01/16 08:13:08;;;;;;;3.63;0.90;;;5.40;99.90;;;;;;5016423;28;20029;-71
2023/01/16 08:15:33;;;;;;;7.65;0.70;;;5.50;99.90;;;;;;5016621;28;20026;-71
2023/01/16 08:17:59;;;;;;;4.38;0.77;;;5.40;99.90;;;;;;5015182;28;20029;-71
2023/01/16 08:20:27;;;;;;;2.05;0.60;;;5.30;99.90;;;;;;5015931;28;20038;-71
2023/01/16 08:22:53;;;;;;;4.65;0.77;;;5.30;99.90;;;;;;5016180;28;20022;-71
2023/01/16 08:25:20;;;;;;;4.60;0.60;;;5.20;99.90;;;;;;5015131;28;20045;-71
2023/01/16 08:27:46;;;;;;;2.17;0.80;;;5.40;99.90;;;;;;5015319;28;20030;-71
2023/01/16 08:30:13;;;;;;;3.65;0.75;;;5.30;99.90;;;;;;5016130;28;20022;-71
2023/01/16 08:32:38;;;;;;;6.40;0.75;;;5.30;99.90;;;;;;5017352;28;20049;-71
2023/01/16 08:35:04;;;;;;;2.85;0.50;;;5.40;99.90;;;;;;5016090;28;20057;-72
2023/01/16 08:37:30;;;;;;;2.35;0.65;;;5.30;99.90;;;;;;5014838;28;20053;-72
2023/01/16 08:39:56;;;;;;;10.00;1.45;;;5.40;99.90;;;;;;5016237;28;20028;-71
2023/01/16 08:53:28;;;;;;;4.60;0.60;;;5.30;99.90;;;;;;5016081;28;20088;-72
2023/01/16 08:55:54;;;;;;;1.05;0.40;;;5.20;99.90;;;;;;5016081;28;20022;-72
2023/01/16 08:58:21;;;;;;;2.25;0.88;;;5.20;99.90;;;;;;5014715;28;20026;-72
2023/01/16 09:00:49;;;;;;;2.78;0.70;;;5.20;99.90;;;;;;5015460;28;20025;-72
2023/01/16 09:03:16;;;;;;;1.58;0.70;;;5.30;99.90;;;;;;5015254;28;20053;-72
2023/01/16 09:05:42;;;;;;;2.75;0.95;;;5.30;99.90;;;;;;5014793;28;20047;-72
2023/01/16 09:08:08;;;;;;;5.05;0.70;;;5.30;99.90;;;;;;5014285;28;20030;-72
2023/01/16 09:10:33;;;;;;;1.13;0.60;;;5.20;99.90;;;;;;5015290;28;20034;-72
2023/01/16 09:15:43;;;;;;;5.93;0.68;;;5.50;99.90;;;;;;5016003;28;20033;-72
2023/01/16 09:18:08;;;;;;;1.42;0.40;;;5.50;99.90;;;;;;5014180;28;20026;-72
2023/01/16 09:20:34;;;;;;;1.67;0.60;;;5.50;99.90;;;;;;5014283;28;20026;-72
2023/01/16 09:23:01;;;;;;;2.75;0.52;;;5.50;99.90;;;;;;5014664;28;20030;-72
2023/01/16 09:25:28;;;;;;;2.03;0.57;;;5.40;99.90;;;;;;5014590;28;20017;-72
2023/01/16 09:27:53;;;;;;;2.95;0.60;;;5.50;99.90;;;;;;5015143;28;20037;-72
2023/01/16 09:30:19;;;;;;;5.13;0.85;;;5.50;99.90;;;;;;5014021;28;20026;-72
2023/01/16 09:32:46;;;;;;;0.80;0.40;;;5.60;99.90;;;;;;5014237;28;20108;-72
2023/01/16 09:35:11;;;;;;;2.88;1.88;;;5.50;99.90;;;;;;5014110;28;20033;-71
2023/01/16 09:37:37;;;;;;;3.53;0.40;;;5.30;99.90;;;;;;5014039;28;20034;-72
2023/01/16 09:40:03;;;;;;;5.05;1.05;;;5.30;99.90;;;;;;5015626;28;20037;-70
2023/01/16 09:45:23;;;;;;;;;;;5.20;99.90;;;;;;5016877;28;20037;-71
2023/01/16 09:47:53;;;;;;;2.13;0.47;;;5.10;99.90;;;;;;5014081;28;19913;-70
2023/01/16 09:50:26;;;;;;;1.52;0.45;;;5.00;99.90;;;;;;5014192;28;20060;-71
2023/01/16 09:58:36;;;;;;;2.83;0.60;;;4.90;99.90;;;;;;5015504;28;20044;-71
2023/01/16 10:01:09;;;;;;;5.80;0.88;;;5.00;99.90;;;;;;5013828;28;20037;-70
2023/01/16 10:03:41;;;;;;;1.73;0.63;;;4.90;99.90;;;;;;5014878;28;20549;-71
2023/01/16 10:06:16;;;;;;;3.13;0.65;;;4.90;99.90;;;;;;5014450;28;20029;-71
2023/01/16 10:08:55;;;;;;;2.60;1.02;;;4.70;99.90;;;;;;5014432;28;20547;-70
2023/01/16 10:11:30;;;;;;;6.00;0.60;;;4.60;99.90;;;;;;5014674;28;20480;-73
2023/01/16 10:14:25;;;;;;;2.75;0.73;;;4.60;99.90;;;;;;5013448;28;20022;-70
2023/01/16 10:17:18;;;;;;;2.05;0.50;;;4.70;99.90;;;;;;5013418;28;20069;-71
2023/01/16 10:19:57;;;;;;;2.03;0.50;;;4.60;99.90;;;;;;5015236;28;20037;-70
2023/01/16 10:22:49;;;;;;;4.32;0.50;;;4.50;99.90;;;;;;5014369;28;20018;-70
2023/01/16 10:25:15;;;;;;;0.32;0.32;;;4.50;99.90;;;;;;5032369;28;20124;-69
2023/01/16 10:28:27;;;;;;;1.70;0.68;;;4.40;99.90;;;;;;5016172;28;20172;-70
2023/01/16 10:31:05;;;;;;;1.67;0.50;;;4.30;99.90;;;;;;5029840;28;20034;-69
2023/01/16 10:33:46;;;;;;;1.63;0.57;;;4.40;99.90;;;;;;5015847;28;20033;-69
2023/01/16 10:36:16;;;;;;;2.70;0.65;;;4.40;99.90;;;;;;5031922;28;20049;-69
2023/01/16 10:38:51;;;;;;;1.50;0.52;;;4.30;99.90;;;;;;5015219;28;20073;-69
2023/01/16 10:49:58;;;;;;;0.98;0.50;;;4.20;99.90;;;;;;5032367;28;20033;-72
2023/01/16 10:52:25;;;;;;;2.13;0.60;;;4.00;99.90;;;;;;5015013;28;20108;-72
2023/01/16 10:54:58;;;;;;;1.88;0.65;;;4.00;99.90;;;;;;5015714;28;20044;-72
2023/01/16 10:57:26;;;;;;;1.20;0.43;;;3.90;99.90;;;;;;5015198;28;20060;-72
2023/01/16 10:59:56;;;;;;;1.00;0.60;;;4.10;99.90;;;;;;5014848;28;20025;-72
2023/01/16 11:02:39;;;;;;;1.58;0.70;;;3.90;99.90;;;;;;5013610;28;20068;-72
2023/01/16 11:05:26;;;;;;;0.95;0.82;;;3.90;99.90;;;;;;5012909;28;20033;-72
2023/01/16 11:07:53;;;;;;;2.50;0.40;;;3.90;99.90;;;;;;5014621;28;20045;-72
2023/01/16 11:10:19;;;;;;;4.28;0.73;;;3.90;99.90;;;;;;5032838;28;20017;-72
2023/01/16 11:18:29;;;;;;;2.03;0.73;;;3.90;99.90;;;;;;5033948;28;20067;-72
2023/01/16 11:21:27;;;;;;;3.08;0.70;;;3.90;99.90;;;;;;5032407;28;20026;-72
2023/01/16 11:24:03;;;;;;;0.52;0.45;;;3.80;99.90;;;;;;5031951;28;20403;-72
2023/01/16 11:26:30;;;;;;;2.78;0.80;;;3.80;99.90;;;;;;5032624;28;20028;-72
2023/01/16 11:28:57;;;;;;;1.80;0.50;;;3.90;99.90;;;;;;5032339;28;20030;-72
2023/01/16 11:31:26;;;;;;;3.35;0.65;;;3.90;99.90;;;;;;5032406;28;20029;-71
2023/01/16 11:34:04;;;;;;;1.20;0.50;;;3.80;99.90;;;;;;5036152;28;20049;-71
2023/01/16 11:36:33;;;;;;;4.22;0.80;;;3.80;99.90;;;;;;5037371;28;20029;-71
2023/01/16 11:38:59;;;;;;;2.58;0.98;;;3.90;99.90;;;;;;5037340;28;20104;-71
2023/01/16 11:41:37;;;;;;;4.55;0.70;;;3.70;99.90;;;;;;5035775;28;20060;-71
2023/01/16 11:47:15;;;;;;;0.60;0.40;;;3.70;99.90;;;;;;5037098;28;20148;-71
2023/01/16 11:49:46;;;;;;;1.75;0.75;;;3.70;99.90;;;;;;5036826;28;20045;-71
2023/01/16 11:52:14;;;;;;;1.00;0.85;;;3.70;99.90;;;;;;5037955;28;20025;-71
2023/01/16 11:54:39;;;;;;;2.00;0.68;;;3.70;99.90;;;;;;5035459;28;20396;-71
2023/01/16 11:57:23;;;;;;;1.20;0.57;;;3.70;99.90;;;;;;5036034;28;20029;-72
2023/01/16 12:00:10;;;;;;;5.97;0.73;;;3.70;99.90;;;;;;5037216;28;20017;-72
2023/01/16 12:02:56;;;;;;;1.27;0.40;;;3.80;99.90;;;;;;5036586;28;20034;-72
2023/01/16 12:05:53;;;;;;;2.95;0.52;;;3.90;99.90;;;;;;5036030;28;20036;-72
2023/01/16 12:08:41;;;;;;;1.33;0.70;;;3.90;99.90;;;;;;5035286;28;20025;-72
2023/01/16 12:11:38;;;;;;;1.42;0.93;;;3.90;99.90;;;;;;5072921;22;20033;-71
2023/01/16 12:14:36;;;;;;;4.93;0.60;;;4.00;99.90;;;;;;5047783;28;20032;-71
2023/01/16 12:17:16;;;;;;;8.40;3.25;;;4.00;99.90;;;;;;5075173;28;20025;-71
2023/01/16 12:20:19;;;;;;;5.07;1.63;;;4.10;99.90;;;;;;5076172;28;20038;-71
2023/01/16 12:23:03;;;;;;;5.60;1.08;;;4.20;99.90;;;;;;5054862;28;20079;-71
2023/01/16 12:29:15;;;;;;;1.05;0.60;;;4.20;99.90;;;;;;5056342;28;20094;-70
2023/01/16 12:32:06;;;;;;;2.67;1.00;;;4.30;99.90;;;;;;5055477;28;20040;-71
2023/01/16 12:34:47;;;;;;;1.98;0.95;;;4.20;99.90;;;;;;5045531;28;20059;-71
2023/01/16 12:37:46;;;;;;;3.70;1.00;;;4.00;99.90;;;;;;5054451;28;20032;-71
2023/01/16 12:40:51;;;;;;;1.25;1.10;;;4.10;99.90;;;;;;5054599;28;20032;-70
2023/01/16 12:43:31;;;;;;;2.15;0.90;;;4.20;99.90;;;;;;5053860;28;20022;-70
2023/01/16 12:46:18;;;;;;;1.63;0.73;;;4.20;99.90;;;;;;5055260;28;20025;-70
2023/01/16 12:49:22;;;;;;;2.95;0.98;;;4.20;99.90;;;;;;5055141;28;20048;-70
2023/01/16 12:52:14;;;;;;;2.88;1.15;;;4.10;99.90;;;;;;5023907;28;20102;-71
2023/01/16 12:54:54;;;;;;;3.15;0.90;;;4.20;99.90;;;;;;5055452;28;20017;-70
2023/01/16 12:57:51;;;;;;;2.97;1.35;;;4.10;99.90;;;;;;5054037;28;20097;-70
2023/01/16 13:00:22;;;;;;;2.05;1.30;;;4.10;99.90;;;;;;5054096;28;20044;-71
2023/01/16 13:03:01;;;;;;;2.20;1.20;;;4.20;99.90;;;;;;5055419;28;20036;-71
2023/01/16 13:05:31;;;;;;;2.95;1.10;;;4.20;99.90;;;;;;5055163;28;20063;-71
2023/01/16 13:08:21;;;;;;;4.88;1.65;;;4.20;99.90;;;;;;5054488;28;20074;-71
2023/01/16 13:13:57;;;;;;;1.67;1.05;;;4.20;99.90;;;;;;5055702;28;20036;-70
2023/01/16 13:16:43;;;;;;;2.28;1.00;;;4.40;99.90;;;;;;5054637;28;20029;-70
2023/01/16 13:19:24;;;;;;;1.98;1.05;;;4.40;99.90;;;;;;5053919;28;20021;-70
2023/01/16 13:22:01;;;;;;;1.23;0.98;;;4.30;99.90;;;;;;5053728;28;20033;-70
2023/01/16 13:24:51;;;;;;;2.35;1.50;;;4.50;99.90;;;;;;5054999;28;20036;-70
2023/01/16 13:27:23;;;;;;;4.05;0.95;;;4.80;99.90;;;;;;5053028;28;20025;-70
2023/01/16 13:30:03;;;;;;;2.47;1.05;;;4.80;99.90;;;;;;5053821;28;20032;-70
2023/01/16 13:32:42;;;;;;;2.58;1.08;;;4.90;99.90;;;;;;5053850;28;20032;-70
2023/01/16 13:35:26;;;;;;;3.25;1.00;;;5.00;99.90;;;;;;5053460;28;20035;-70
2023/01/16 13:38:10;;;;;;;1.38;1.00;;;5.00;99.90;;;;;;5053408;28;20032;-71
2023/01/16 13:40:49;;;;;;;1.83;0.70;;;5.20;99.90;;;;;;5055267;28;20025;-71
2023/01/16 13:46:09;;;;;;;1.75;0.80;;;5.10;99.90;;;;;;5054812;28;20032;-71
2023/01/16 13:48:36;;;;;;;0.82;0.50;;;5.10;99.90;;;;;;5053309;28;20025;-71
2023/01/16 13:51:14;;;;;;;1.13;0.70;;;5.20;99.90;;;;;;5053128;28;20025;-71
2023/01/16 13:53:44;;;;;;;1.25;0.65;;;5.40;99.90;;;;;;5053855;28;20052;-71
2023/01/16 13:56:14;;;;;;;2.83;0.52;;;5.40;99.90;;;;;;5052832;28;20029;-70
2023/01/16 13:58:44;;;;;;;1.80;0.40;;;5.30;99.90;;;;;;5053025;28;20025;-70
2023/01/16 14:01:38;;;;;;;3.22;0.43;;;5.30;99.90;;;;;;5053308;28;20426;-70
2023/01/16 14:04:17;;;;;;;1.98;0.57;;;5.20;99.90;;;;;;5043982;28;20124;-70
2023/01/16 14:09:03;;;;;;;2.05;0.82;;;5.30;99.90;;;;;;5054171;28;20052;-70
2023/01/16 14:10:16;;;;;;;0.40;0.40;;;5.30;99.90;;;;;;5053979;28;20017;-71
2023/01/16 14:13:23;;;;;;;1.15;0.60;;;5.30;99.90;;;;;;5052662;28;20057;-70
2023/01/16 14:18:49;;;;;;;2.67;0.50;;;5.40;99.90;;;;;;5054439;28;20087;-70
2023/01/16 14:21:42;;;;;;;2.08;0.35;;;5.40;99.90;;;;;;5052525;28;20079;-70
2023/01/16 14:24:19;;;;;;;5.43;1.50;;;5.30;99.90;;;;;;5053553;28;20098;-71
2023/01/16 14:26:59;;;;;;;2.30;0.60;;;5.30;99.90;;;;;;5053806;28;20091;-71